テルアビブ / ベン・グリオン の空港の天気 - METARとTAF

ベン・グリオン国際空港(テルアビブ) ( LLBG / TLV ) - イスラエル ロード / テルアビブ
飛行場実況気象(Metar)
観測時間01/23 07:50 IST (01/23 05:50 UTC)
風向・風速南西 5m/s
視程4000m
天気現象
全天の4割程度の雲 雲底高度 400m
全天を覆う雲 雲底高度 760m
気温13℃
湿度94%
気圧1012hPa
METARLLBG 230550Z 22009KT 4000 RA SCT013 OVC025 13/12 Q1012 NOSIG
過去の天気等 Google飛行場航空写真 Wunderground天気予報

過去48時間のMETAR

飛行場予報(TAF)
発表時間: 1/23 07:03 IST (1/23 05:03 UTC)
予報対象時間: 23日8時 IST ~ 24日8時 IST
風向・風速南南西 6m/s
視程9,000m
全天の4割程度の雲 雲底高度 760m
全天の8割程度の雲 雲底高度 910m
23日8時 IST ~ 23日11時 IST に一時的に
風向・風速西南西 9m/s
視程6,000m
天気現象
少しの雲 雲底高度 610m
少しの塔状積雲 雲底高度 760m
全天の8割程度の雲 雲底高度 910m
23日11時 IST ~ 23日17時 IST に一時的に
風向・風速西南西 9m/s
天気現象
全天の4割程度の雲 雲底高度 610m
全天の8割程度の雲 雲底高度 760m
23日17時 IST ~ 23日19時 IST に徐々に
風向・風速南 3m/s
23日19時 IST から 確率 40% で
天気現象
全天の4割程度の雲 雲底高度 610m
全天の8割程度の雲 雲底高度 760m
TAF LLBG 230503Z 2306/2406 20012KT 9000 SCT025 BKN030
TEMPO 2306/2309 24018KT 6000 RA FEW020 FEW025TCU BKN030
TEMPO 2309/2315 24018KT RA SCT020 BKN025
BECMG 2315/2317 18005KT
PROB40 2317/2406 RA SCT020 BKN025 TX17/2312Z TN13/2404Z